sensor_id;sensor_type;location;lat;lon;timestamp;P1;durP1;ratioP1;P2;durP2;ratioP2
22064;SDS011;11197;53.110;8.468;2022-12-29T00:01:40;8.70;;;7.82;;
22064;SDS011;11197;53.110;8.468;2022-12-29T00:04:06;8.73;;;7.88;;
22064;SDS011;11197;53.110;8.468;2022-12-29T00:06:32;9.00;;;8.10;;
22064;SDS011;11197;53.110;8.468;2022-12-29T00:08:58;10.63;;;7.97;;
22064;SDS011;11197;53.110;8.468;2022-12-29T00:11:24;9.95;;;8.23;;
22064;SDS011;11197;53.110;8.468;2022-12-29T00:13:52;8.80;;;7.82;;
22064;SDS011;11197;53.110;8.468;2022-12-29T00:16:37;8.70;;;7.80;;
22064;SDS011;11197;53.110;8.468;2022-12-29T00:19:05;10.15;;;8.23;;
22064;SDS011;11197;53.110;8.468;2022-12-29T00:21:31;9.20;;;8.20;;
22064;SDS011;11197;53.110;8.468;2022-12-29T00:24:20;10.90;;;8.63;;
22064;SDS011;11197;53.110;8.468;2022-12-29T00:27:07;11.00;;;8.88;;
22064;SDS011;11197;53.110;8.468;2022-12-29T00:29:55;11.45;;;9.32;;
22064;SDS011;11197;53.110;8.468;2022-12-29T00:32:40;10.82;;;9.27;;
22064;SDS011;11197;53.110;8.468;2022-12-29T00:35:28;11.20;;;9.82;;
22064;SDS011;11197;53.110;8.468;2022-12-29T00:37:58;10.82;;;9.63;;
22064;SDS011;11197;53.110;8.468;2022-12-29T00:40:45;11.65;;;9.77;;
22064;SDS011;11197;53.110;8.468;2022-12-29T00:43:29;11.68;;;9.95;;
22064;SDS011;11197;53.110;8.468;2022-12-29T00:46:14;14.10;;;11.43;;
22064;SDS011;11197;53.110;8.468;2022-12-29T00:48:39;13.93;;;11.48;;
22064;SDS011;11197;53.110;8.468;2022-12-29T00:51:24;11.85;;;10.65;;
22064;SDS011;11197;53.110;8.468;2022-12-29T00:53:50;12.98;;;11.68;;
22064;SDS011;11197;53.110;8.468;2022-12-29T00:56:15;12.27;;;10.80;;
22064;SDS011;11197;53.110;8.468;2022-12-29T00:58:41;15.95;;;11.25;;
22064;SDS011;11197;53.110;8.468;2022-12-29T01:01:08;13.75;;;12.32;;
22064;SDS011;11197;53.110;8.468;2022-12-29T01:03:35;13.65;;;12.27;;
22064;SDS011;11197;53.110;8.468;2022-12-29T01:06:02;13.77;;;11.45;;
22064;SDS011;11197;53.110;8.468;2022-12-29T01:08:30;13.57;;;12.15;;
22064;SDS011;11197;53.110;8.468;2022-12-29T01:10:59;13.73;;;12.02;;
22064;SDS011;11197;53.110;8.468;2022-12-29T01:13:26;12.57;;;11.27;;
22064;SDS011;11197;53.110;8.468;2022-12-29T01:15:52;14.60;;;11.43;;
22064;SDS011;11197;53.110;8.468;2022-12-29T01:18:19;13.65;;;11.55;;
22064;SDS011;11197;53.110;8.468;2022-12-29T01:20:45;12.45;;;10.70;;
22064;SDS011;11197;53.110;8.468;2022-12-29T01:23:11;11.48;;;10.27;;
22064;SDS011;11197;53.110;8.468;2022-12-29T01:25:37;10.25;;;9.30;;
22064;SDS011;11197;53.110;8.468;2022-12-29T01:28:03;10.70;;;9.70;;
22064;SDS011;11197;53.110;8.468;2022-12-29T01:30:29;10.13;;;9.13;;
22064;SDS011;11197;53.110;8.468;2022-12-29T01:32:55;9.85;;;8.85;;
22064;SDS011;11197;53.110;8.468;2022-12-29T01:35:21;10.13;;;9.07;;
22064;SDS011;11197;53.110;8.468;2022-12-29T01:37:47;10.13;;;8.57;;
22064;SDS011;11197;53.110;8.468;2022-12-29T01:40:13;10.10;;;8.77;;
22064;SDS011;11197;53.110;8.468;2022-12-29T01:42:39;9.32;;;8.43;;
22064;SDS011;11197;53.110;8.468;2022-12-29T01:45:12;9.07;;;7.80;;
22064;SDS011;11197;53.110;8.468;2022-12-29T01:47:43;8.80;;;7.90;;
22064;SDS011;11197;53.110;8.468;2022-12-29T01:50:17;8.75;;;7.85;;
22064;SDS011;11197;53.110;8.468;2022-12-29T01:55:28;8.55;;;7.55;;
22064;SDS011;11197;53.110;8.468;2022-12-29T01:57:58;10.13;;;7.63;;
22064;SDS011;11197;53.110;8.468;2022-12-29T02:00:29;8.02;;;7.18;;
22064;SDS011;11197;53.110;8.468;2022-12-29T02:02:55;7.38;;;6.47;;
22064;SDS011;11197;53.110;8.468;2022-12-29T02:05:24;8.43;;;6.90;;
22064;SDS011;11197;53.110;8.468;2022-12-29T02:07:50;7.38;;;6.60;;
22064;SDS011;11197;53.110;8.468;2022-12-29T02:10:19;7.25;;;6.55;;
22064;SDS011;11197;53.110;8.468;2022-12-29T02:12:46;9.82;;;6.82;;
22064;SDS011;11197;53.110;8.468;2022-12-29T02:15:16;7.57;;;6.70;;
22064;SDS011;11197;53.110;8.468;2022-12-29T02:20:17;7.43;;;5.97;;
22064;SDS011;11197;53.110;8.468;2022-12-29T02:23:27;7.22;;;6.10;;
22064;SDS011;11197;53.110;8.468;2022-12-29T02:26:44;6.75;;;6.05;;
22064;SDS011;11197;53.110;8.468;2022-12-29T02:34:49;6.45;;;5.55;;
22064;SDS011;11197;53.110;8.468;2022-12-29T02:37:19;8.20;;;5.40;;
22064;SDS011;11197;53.110;8.468;2022-12-29T02:40:06;5.90;;;5.30;;
22064;SDS011;11197;53.110;8.468;2022-12-29T02:42:49;6.33;;;5.47;;
22064;SDS011;11197;53.110;8.468;2022-12-29T02:45:24;6.30;;;5.00;;
22064;SDS011;11197;53.110;8.468;2022-12-29T02:48:00;6.40;;;5.80;;
22064;SDS011;11197;53.110;8.468;2022-12-29T02:50:43;6.88;;;5.65;;
22064;SDS011;11197;53.110;8.468;2022-12-29T02:53:19;6.43;;;5.82;;
22064;SDS011;11197;53.110;8.468;2022-12-29T02:56:06;6.50;;;5.53;;
22064;SDS011;11197;53.110;8.468;2022-12-29T02:58:36;7.20;;;6.50;;
22064;SDS011;11197;53.110;8.468;2022-12-29T03:09:29;7.53;;;6.75;;
22064;SDS011;11197;53.110;8.468;2022-12-29T03:15:37;7.25;;;6.43;;
22064;SDS011;11197;53.110;8.468;2022-12-29T03:19:07;7.22;;;6.47;;
22064;SDS011;11197;53.110;8.468;2022-12-29T03:21:15;7.00;;;6.30;;
22064;SDS011;11197;53.110;8.468;2022-12-29T03:24:19;6.10;;;5.50;;
22064;SDS011;11197;53.110;8.468;2022-12-29T03:26:48;5.93;;;5.32;;
22064;SDS011;11197;53.110;8.468;2022-12-29T03:29:17;5.33;;;4.83;;
22064;SDS011;11197;53.110;8.468;2022-12-29T03:31:47;5.18;;;4.30;;
22064;SDS011;11197;53.110;8.468;2022-12-29T03:34:15;4.15;;;3.70;;
22064;SDS011;11197;53.110;8.468;2022-12-29T03:36:45;4.78;;;3.83;;
22064;SDS011;11197;53.110;8.468;2022-12-29T03:39:16;4.03;;;3.30;;
22064;SDS011;11197;53.110;8.468;2022-12-29T03:41:46;4.63;;;3.33;;
22064;SDS011;11197;53.110;8.468;2022-12-29T03:44:17;4.38;;;3.13;;
22064;SDS011;11197;53.110;8.468;2022-12-29T03:46:42;5.45;;;3.30;;
22064;SDS011;11197;53.110;8.468;2022-12-29T03:49:09;3.65;;;3.28;;
22064;SDS011;11197;53.110;8.468;2022-12-29T03:51:35;4.00;;;3.60;;
22064;SDS011;11197;53.110;8.468;2022-12-29T03:54:04;4.20;;;3.80;;
22064;SDS011;11197;53.110;8.468;2022-12-29T03:56:30;4.63;;;3.97;;
22064;SDS011;11197;53.110;8.468;2022-12-29T03:58:57;5.43;;;4.47;;
22064;SDS011;11197;53.110;8.468;2022-12-29T04:01:29;5.22;;;4.72;;
22064;SDS011;11197;53.110;8.468;2022-12-29T04:03:55;5.90;;;5.30;;
22064;SDS011;11197;53.110;8.468;2022-12-29T04:06:21;6.30;;;5.70;;
22064;SDS011;11197;53.110;8.468;2022-12-29T04:08:52;5.65;;;5.10;;
22064;SDS011;11197;53.110;8.468;2022-12-29T04:11:19;5.85;;;5.25;;
22064;SDS011;11197;53.110;8.468;2022-12-29T04:13:46;5.65;;;5.15;;
22064;SDS011;11197;53.110;8.468;2022-12-29T04:16:16;6.03;;;5.43;;
22064;SDS011;11197;53.110;8.468;2022-12-29T04:18:42;6.15;;;5.55;;
22064;SDS011;11197;53.110;8.468;2022-12-29T04:21:08;6.10;;;5.50;;
22064;SDS011;11197;53.110;8.468;2022-12-29T04:23:37;7.28;;;5.45;;
22064;SDS011;11197;53.110;8.468;2022-12-29T04:26:06;6.35;;;5.43;;
22064;SDS011;11197;53.110;8.468;2022-12-29T04:28:39;6.07;;;5.47;;
22064;SDS011;11197;53.110;8.468;2022-12-29T04:31:24;6.07;;;5.32;;
22064;SDS011;11197;53.110;8.468;2022-12-29T04:33:50;5.88;;;5.28;;
22064;SDS011;11197;53.110;8.468;2022-12-29T04:36:16;5.60;;;5.10;;
22064;SDS011;11197;53.110;8.468;2022-12-29T04:38:42;6.13;;;5.50;;
22064;SDS011;11197;53.110;8.468;2022-12-29T04:41:09;5.30;;;4.78;;
22064;SDS011;11197;53.110;8.468;2022-12-29T04:43:37;5.43;;;4.53;;
22064;SDS011;11197;53.110;8.468;2022-12-29T04:46:15;5.50;;;4.25;;
22064;SDS011;11197;53.110;8.468;2022-12-29T04:49:02;5.28;;;3.80;;
22064;SDS011;11197;53.110;8.468;2022-12-29T04:51:46;4.55;;;3.15;;
22064;SDS011;11197;53.110;8.468;2022-12-29T04:54:13;3.97;;;2.80;;
22064;SDS011;11197;53.110;8.468;2022-12-29T04:56:39;5.88;;;2.70;;
22064;SDS011;11197;53.110;8.468;2022-12-29T04:59:06;3.85;;;2.40;;
22064;SDS011;11197;53.110;8.468;2022-12-29T05:01:32;2.92;;;1.95;;
22064;SDS011;11197;53.110;8.468;2022-12-29T05:03:59;2.90;;;1.75;;
22064;SDS011;11197;53.110;8.468;2022-12-29T05:06:25;6.25;;;1.83;;
22064;SDS011;11197;53.110;8.468;2022-12-29T05:08:50;5.07;;;1.67;;
22064;SDS011;11197;53.110;8.468;2022-12-29T05:11:16;4.30;;;1.70;;
22064;SDS011;11197;53.110;8.468;2022-12-29T05:13:45;3.80;;;1.60;;
22064;SDS011;11197;53.110;8.468;2022-12-29T05:16:12;2.72;;;1.30;;
22064;SDS011;11197;53.110;8.468;2022-12-29T05:18:39;3.75;;;1.30;;
22064;SDS011;11197;53.110;8.468;2022-12-29T05:21:07;3.95;;;1.00;;
22064;SDS011;11197;53.110;8.468;2022-12-29T05:23:33;2.75;;;1.10;;
22064;SDS011;11197;53.110;8.468;2022-12-29T05:26:03;2.63;;;0.90;;
22064;SDS011;11197;53.110;8.468;2022-12-29T05:28:58;2.45;;;1.08;;
22064;SDS011;11197;53.110;8.468;2022-12-29T05:31:25;3.10;;;1.25;;
22064;SDS011;11197;53.110;8.468;2022-12-29T05:33:51;2.95;;;1.00;;
22064;SDS011;11197;53.110;8.468;2022-12-29T05:36:18;2.80;;;0.90;;
22064;SDS011;11197;53.110;8.468;2022-12-29T05:38:51;1.60;;;0.73;;
22064;SDS011;11197;53.110;8.468;2022-12-29T05:41:17;1.58;;;0.70;;
22064;SDS011;11197;53.110;8.468;2022-12-29T05:43:45;2.05;;;0.80;;
22064;SDS011;11197;53.110;8.468;2022-12-29T05:46:19;1.50;;;0.70;;
22064;SDS011;11197;53.110;8.468;2022-12-29T05:48:56;3.95;;;0.80;;
22064;SDS011;11197;53.110;8.468;2022-12-29T05:51:33;2.03;;;0.70;;
22064;SDS011;11197;53.110;8.468;2022-12-29T05:53:59;3.05;;;0.73;;
22064;SDS011;11197;53.110;8.468;2022-12-29T05:56:26;2.33;;;0.98;;
22064;SDS011;11197;53.110;8.468;2022-12-29T06:01:25;3.03;;;1.00;;
22064;SDS011;11197;53.110;8.468;2022-12-29T06:03:52;2.05;;;1.13;;
22064;SDS011;11197;53.110;8.468;2022-12-29T06:06:19;2.38;;;1.30;;
22064;SDS011;11197;53.110;8.468;2022-12-29T06:08:46;2.13;;;1.20;;
22064;SDS011;11197;53.110;8.468;2022-12-29T06:11:12;2.25;;;1.13;;
22064;SDS011;11197;53.110;8.468;2022-12-29T06:13:42;3.30;;;1.47;;
22064;SDS011;11197;53.110;8.468;2022-12-29T06:16:08;3.25;;;1.25;;
22064;SDS011;11197;53.110;8.468;2022-12-29T06:18:38;2.53;;;1.10;;
22064;SDS011;11197;53.110;8.468;2022-12-29T06:21:04;2.85;;;1.10;;
22064;SDS011;11197;53.110;8.468;2022-12-29T06:23:31;2.85;;;1.00;;
22064;SDS011;11197;53.110;8.468;2022-12-29T06:25:57;5.00;;;0.90;;
22064;SDS011;11197;53.110;8.468;2022-12-29T06:28:23;3.60;;;1.10;;
22064;SDS011;11197;53.110;8.468;2022-12-29T06:30:49;2.67;;;1.17;;
22064;SDS011;11197;53.110;8.468;2022-12-29T06:33:16;3.30;;;1.00;;
22064;SDS011;11197;53.110;8.468;2022-12-29T06:35:43;3.88;;;0.90;;
22064;SDS011;11197;53.110;8.468;2022-12-29T06:38:12;4.05;;;1.00;;
22064;SDS011;11197;53.110;8.468;2022-12-29T06:40:38;3.08;;;1.02;;
22064;SDS011;11197;53.110;8.468;2022-12-29T06:43:27;4.30;;;1.50;;
22064;SDS011;11197;53.110;8.468;2022-12-29T06:46:02;5.45;;;1.52;;
22064;SDS011;11197;53.110;8.468;2022-12-29T06:48:29;2.92;;;1.50;;
22064;SDS011;11197;53.110;8.468;2022-12-29T06:50:55;4.93;;;2.03;;
22064;SDS011;11197;53.110;8.468;2022-12-29T06:53:20;7.28;;;1.88;;
22064;SDS011;11197;53.110;8.468;2022-12-29T06:55:46;2.85;;;1.70;;
22064;SDS011;11197;53.110;8.468;2022-12-29T06:58:12;3.85;;;1.48;;
22064;SDS011;11197;53.110;8.468;2022-12-29T07:00:38;5.97;;;1.42;;
22064;SDS011;11197;53.110;8.468;2022-12-29T07:03:04;3.50;;;1.35;;
22064;SDS011;11197;53.110;8.468;2022-12-29T07:05:30;3.00;;;1.30;;
22064;SDS011;11197;53.110;8.468;2022-12-29T07:07:57;2.72;;;1.10;;
22064;SDS011;11197;53.110;8.468;2022-12-29T07:10:23;4.28;;;1.23;;
22064;SDS011;11197;53.110;8.468;2022-12-29T07:12:49;4.65;;;1.30;;
22064;SDS011;11197;53.110;8.468;2022-12-29T07:15:15;3.25;;;1.20;;
22064;SDS011;11197;53.110;8.468;2022-12-29T07:17:41;4.18;;;1.20;;
22064;SDS011;11197;53.110;8.468;2022-12-29T07:20:07;3.33;;;1.02;;
22064;SDS011;11197;53.110;8.468;2022-12-29T07:22:33;5.45;;;1.20;;
22064;SDS011;11197;53.110;8.468;2022-12-29T07:24:59;5.50;;;1.20;;
22064;SDS011;11197;53.110;8.468;2022-12-29T07:27:24;3.75;;;1.30;;
22064;SDS011;11197;53.110;8.468;2022-12-29T07:29:50;5.03;;;1.20;;
22064;SDS011;11197;53.110;8.468;2022-12-29T07:32:16;3.75;;;1.40;;
22064;SDS011;11197;53.110;8.468;2022-12-29T07:34:42;3.40;;;1.40;;
22064;SDS011;11197;53.110;8.468;2022-12-29T07:37:10;4.47;;;1.42;;
22064;SDS011;11197;53.110;8.468;2022-12-29T07:39:36;4.03;;;1.40;;
22064;SDS011;11197;53.110;8.468;2022-12-29T07:42:04;5.28;;;1.42;;
22064;SDS011;11197;53.110;8.468;2022-12-29T07:44:38;3.65;;;1.33;;
22064;SDS011;11197;53.110;8.468;2022-12-29T07:47:22;6.20;;;1.48;;
22064;SDS011;11197;53.110;8.468;2022-12-29T07:49:48;3.85;;;1.20;;
22064;SDS011;11197;53.110;8.468;2022-12-29T07:52:14;4.55;;;1.50;;
22064;SDS011;11197;53.110;8.468;2022-12-29T07:54:39;3.47;;;1.20;;
22064;SDS011;11197;53.110;8.468;2022-12-29T07:57:05;3.92;;;1.27;;
22064;SDS011;11197;53.110;8.468;2022-12-29T07:59:31;3.67;;;1.02;;
22064;SDS011;11197;53.110;8.468;2022-12-29T08:01:57;5.28;;;1.40;;
22064;SDS011;11197;53.110;8.468;2022-12-29T08:04:24;4.70;;;1.30;;
22064;SDS011;11197;53.110;8.468;2022-12-29T08:06:50;4.38;;;1.30;;
22064;SDS011;11197;53.110;8.468;2022-12-29T08:09:16;3.45;;;1.27;;
22064;SDS011;11197;53.110;8.468;2022-12-29T08:11:42;5.28;;;1.13;;
22064;SDS011;11197;53.110;8.468;2022-12-29T08:14:08;4.10;;;1.23;;
22064;SDS011;11197;53.110;8.468;2022-12-29T08:16:34;8.30;;;1.20;;
22064;SDS011;11197;53.110;8.468;2022-12-29T08:19:00;5.90;;;1.10;;
22064;SDS011;11197;53.110;8.468;2022-12-29T08:21:27;5.85;;;1.10;;
22064;SDS011;11197;53.110;8.468;2022-12-29T08:23:53;7.45;;;1.10;;
22064;SDS011;11197;53.110;8.468;2022-12-29T08:26:19;5.63;;;1.20;;
22064;SDS011;11197;53.110;8.468;2022-12-29T08:28:45;6.30;;;1.27;;
22064;SDS011;11197;53.110;8.468;2022-12-29T08:31:11;4.80;;;1.20;;
22064;SDS011;11197;53.110;8.468;2022-12-29T08:33:37;7.32;;;1.40;;
22064;SDS011;11197;53.110;8.468;2022-12-29T08:36:03;6.57;;;1.20;;
22064;SDS011;11197;53.110;8.468;2022-12-29T08:38:31;5.97;;;1.20;;
22064;SDS011;11197;53.110;8.468;2022-12-29T08:40:57;8.23;;;1.33;;
22064;SDS011;11197;53.110;8.468;2022-12-29T08:43:23;6.40;;;1.35;;
22064;SDS011;11197;53.110;8.468;2022-12-29T08:45:50;7.25;;;1.50;;
22064;SDS011;11197;53.110;8.468;2022-12-29T08:48:16;11.70;;;1.50;;
22064;SDS011;11197;53.110;8.468;2022-12-29T08:50:45;7.35;;;1.70;;
22064;SDS011;11197;53.110;8.468;2022-12-29T08:53:11;7.10;;;1.50;;
22064;SDS011;11197;53.110;8.468;2022-12-29T08:55:37;6.70;;;1.55;;
22064;SDS011;11197;53.110;8.468;2022-12-29T08:58:03;7.78;;;1.48;;
22064;SDS011;11197;53.110;8.468;2022-12-29T09:00:29;10.55;;;1.50;;
22064;SDS011;11197;53.110;8.468;2022-12-29T09:02:56;8.52;;;1.63;;
22064;SDS011;11197;53.110;8.468;2022-12-29T09:05:22;7.93;;;1.40;;
22064;SDS011;11197;53.110;8.468;2022-12-29T09:07:48;5.45;;;1.50;;
22064;SDS011;11197;53.110;8.468;2022-12-29T09:10:13;7.93;;;1.48;;
22064;SDS011;11197;53.110;8.468;2022-12-29T09:12:39;6.30;;;1.30;;
22064;SDS011;11197;53.110;8.468;2022-12-29T09:15:05;6.05;;;1.23;;
22064;SDS011;11197;53.110;8.468;2022-12-29T09:17:32;4.65;;;1.08;;
22064;SDS011;11197;53.110;8.468;2022-12-29T09:20:09;6.82;;;1.50;;
22064;SDS011;11197;53.110;8.468;2022-12-29T09:22:36;5.80;;;1.35;;
22064;SDS011;11197;53.110;8.468;2022-12-29T09:25:02;5.65;;;1.23;;
22064;SDS011;11197;53.110;8.468;2022-12-29T09:27:28;8.45;;;1.20;;
22064;SDS011;11197;53.110;8.468;2022-12-29T09:29:55;5.82;;;1.27;;
22064;SDS011;11197;53.110;8.468;2022-12-29T09:32:21;7.75;;;1.38;;
22064;SDS011;11197;53.110;8.468;2022-12-29T09:34:47;5.43;;;1.15;;
22064;SDS011;11197;53.110;8.468;2022-12-29T09:37:13;8.18;;;1.58;;
22064;SDS011;11197;53.110;8.468;2022-12-29T09:39:39;6.60;;;1.10;;
22064;SDS011;11197;53.110;8.468;2022-12-29T09:47:24;6.97;;;1.40;;
22064;SDS011;11197;53.110;8.468;2022-12-29T09:49:56;9.48;;;1.35;;
22064;SDS011;11197;53.110;8.468;2022-12-29T09:52:36;5.55;;;1.50;;
22064;SDS011;11197;53.110;8.468;2022-12-29T09:55:16;7.40;;;1.73;;
22064;SDS011;11197;53.110;8.468;2022-12-29T09:58:19;7.63;;;1.55;;
22064;SDS011;11197;53.110;8.468;2022-12-29T10:06:17;3.30;;;0.85;;
22064;SDS011;11197;53.110;8.468;2022-12-29T10:11:33;3.22;;;0.80;;
22064;SDS011;11197;53.110;8.468;2022-12-29T10:20:06;4.53;;;0.90;;
22064;SDS011;11197;53.110;8.468;2022-12-29T10:25:38;4.90;;;1.10;;
22064;SDS011;11197;53.110;8.468;2022-12-29T10:31:15;2.92;;;0.70;;
22064;SDS011;11197;53.110;8.468;2022-12-29T10:33:46;4.80;;;1.00;;
22064;SDS011;11197;53.110;8.468;2022-12-29T10:36:39;4.40;;;0.90;;
22064;SDS011;11197;53.110;8.468;2022-12-29T10:41:46;6.38;;;0.93;;
22064;SDS011;11197;53.110;8.468;2022-12-29T10:44:27;5.15;;;0.73;;
22064;SDS011;11197;53.110;8.468;2022-12-29T10:46:59;4.43;;;0.80;;
22064;SDS011;11197;53.110;8.468;2022-12-29T10:49:30;4.30;;;0.98;;
22064;SDS011;11197;53.110;8.468;2022-12-29T10:52:02;7.53;;;1.10;;
22064;SDS011;11197;53.110;8.468;2022-12-29T10:54:33;6.35;;;1.00;;
22064;SDS011;11197;53.110;8.468;2022-12-29T10:57:39;5.10;;;1.00;;
22064;SDS011;11197;53.110;8.468;2022-12-29T11:00:19;2.97;;;0.80;;
22064;SDS011;11197;53.110;8.468;2022-12-29T11:08:32;6.13;;;1.00;;
22064;SDS011;11197;53.110;8.468;2022-12-29T11:11:05;6.65;;;1.17;;
22064;SDS011;11197;53.110;8.468;2022-12-29T11:16:28;5.60;;;1.10;;
22064;SDS011;11197;53.110;8.468;2022-12-29T11:19:00;6.00;;;1.40;;
22064;SDS011;11197;53.110;8.468;2022-12-29T11:23:59;5.65;;;1.55;;
22064;SDS011;11197;53.110;8.468;2022-12-29T11:26:27;8.70;;;1.80;;
22064;SDS011;11197;53.110;8.468;2022-12-29T11:34:15;8.55;;;1.38;;
22064;SDS011;11197;53.110;8.468;2022-12-29T11:37:25;6.60;;;1.40;;
22064;SDS011;11197;53.110;8.468;2022-12-29T11:42:22;6.45;;;1.50;;
22064;SDS011;11197;53.110;8.468;2022-12-29T11:45:15;6.15;;;1.17;;
22064;SDS011;11197;53.110;8.468;2022-12-29T11:47:50;5.45;;;1.40;;
22064;SDS011;11197;53.110;8.468;2022-12-29T11:50:41;10.80;;;1.50;;
22064;SDS011;11197;53.110;8.468;2022-12-29T11:54:09;8.68;;;1.17;;
22064;SDS011;11197;53.110;8.468;2022-12-29T11:56:03;7.05;;;1.10;;
22064;SDS011;11197;53.110;8.468;2022-12-29T11:58:35;7.80;;;1.20;;
22064;SDS011;11197;53.110;8.468;2022-12-29T12:07:00;7.95;;;1.15;;
22064;SDS011;11197;53.110;8.468;2022-12-29T12:09:36;6.47;;;1.17;;
22064;SDS011;11197;53.110;8.468;2022-12-29T12:12:44;5.20;;;1.08;;
22064;SDS011;11197;53.110;8.468;2022-12-29T12:15:38;5.55;;;1.20;;
22064;SDS011;11197;53.110;8.468;2022-12-29T12:18:08;7.35;;;1.40;;
22064;SDS011;11197;53.110;8.468;2022-12-29T12:20:56;6.53;;;1.15;;
22064;SDS011;11197;53.110;8.468;2022-12-29T12:26:15;6.30;;;1.38;;
22064;SDS011;11197;53.110;8.468;2022-12-29T12:28:54;7.82;;;1.13;;
22064;SDS011;11197;53.110;8.468;2022-12-29T12:34:04;3.88;;;0.95;;
22064;SDS011;11197;53.110;8.468;2022-12-29T12:39:39;7.47;;;1.52;;
22064;SDS011;11197;53.110;8.468;2022-12-29T12:42:23;7.25;;;1.40;;
22064;SDS011;11197;53.110;8.468;2022-12-29T12:45:15;6.53;;;1.73;;
22064;SDS011;11197;53.110;8.468;2022-12-29T12:48:40;5.72;;;1.10;;
22064;SDS011;11197;53.110;8.468;2022-12-29T12:51:10;4.32;;;1.23;;
22064;SDS011;11197;53.110;8.468;2022-12-29T12:59:49;7.57;;;1.50;;
22064;SDS011;11197;53.110;8.468;2022-12-29T13:05:32;6.28;;;1.25;;
22064;SDS011;11197;53.110;8.468;2022-12-29T13:08:26;7.88;;;1.20;;
22064;SDS011;11197;53.110;8.468;2022-12-29T13:10:59;8.05;;;1.20;;
22064;SDS011;11197;53.110;8.468;2022-12-29T13:22:08;4.75;;;1.35;;
22064;SDS011;11197;53.110;8.468;2022-12-29T13:27:33;6.38;;;0.90;;
22064;SDS011;11197;53.110;8.468;2022-12-29T13:30:27;6.40;;;1.40;;
22064;SDS011;11197;53.110;8.468;2022-12-29T13:33:04;5.38;;;1.10;;
22064;SDS011;11197;53.110;8.468;2022-12-29T13:38:21;4.63;;;1.15;;
22064;SDS011;11197;53.110;8.468;2022-12-29T13:41:08;8.88;;;1.33;;
22064;SDS011;11197;53.110;8.468;2022-12-29T13:43:44;6.88;;;1.40;;
22064;SDS011;11197;53.110;8.468;2022-12-29T13:46:21;6.97;;;1.17;;
22064;SDS011;11197;53.110;8.468;2022-12-29T13:48:54;10.48;;;1.35;;
22064;SDS011;11197;53.110;8.468;2022-12-29T13:51:30;7.75;;;1.35;;
22064;SDS011;11197;53.110;8.468;2022-12-29T13:54:18;7.13;;;1.35;;
22064;SDS011;11197;53.110;8.468;2022-12-29T13:59:37;9.13;;;1.42;;
22064;SDS011;11197;53.110;8.468;2022-12-29T14:03:02;9.55;;;1.60;;
22064;SDS011;11197;53.110;8.468;2022-12-29T14:07:56;7.38;;;1.73;;
22064;SDS011;11197;53.110;8.468;2022-12-29T14:13:18;5.38;;;1.58;;
22064;SDS011;11197;53.110;8.468;2022-12-29T14:15:57;8.57;;;1.58;;
22064;SDS011;11197;53.110;8.468;2022-12-29T14:18:36;7.82;;;2.15;;
22064;SDS011;11197;53.110;8.468;2022-12-29T14:21:23;5.60;;;1.80;;
22064;SDS011;11197;53.110;8.468;2022-12-29T14:24:25;5.60;;;2.00;;
22064;SDS011;11197;53.110;8.468;2022-12-29T14:38:25;9.15;;;2.50;;
22064;SDS011;11197;53.110;8.468;2022-12-29T14:43:58;6.65;;;1.48;;
22064;SDS011;11197;53.110;8.468;2022-12-29T14:49:22;8.73;;;1.77;;
22064;SDS011;11197;53.110;8.468;2022-12-29T14:54:49;8.27;;;1.67;;
22064;SDS011;11197;53.110;8.468;2022-12-29T14:57:31;8.38;;;1.90;;
22064;SDS011;11197;53.110;8.468;2022-12-29T15:00:34;7.72;;;1.95;;
22064;SDS011;11197;53.110;8.468;2022-12-29T15:03:06;8.77;;;1.70;;
22064;SDS011;11197;53.110;8.468;2022-12-29T15:06:04;8.38;;;1.80;;
22064;SDS011;11197;53.110;8.468;2022-12-29T15:08:33;8.43;;;1.45;;
22064;SDS011;11197;53.110;8.468;2022-12-29T15:11:24;8.52;;;1.85;;
22064;SDS011;11197;53.110;8.468;2022-12-29T15:14:34;9.07;;;2.30;;
22064;SDS011;11197;53.110;8.468;2022-12-29T15:17:33;8.25;;;2.00;;
22064;SDS011;11197;53.110;8.468;2022-12-29T15:20:13;10.52;;;2.20;;
22064;SDS011;11197;53.110;8.468;2022-12-29T15:22:46;6.80;;;1.70;;
22064;SDS011;11197;53.110;8.468;2022-12-29T15:25:34;8.15;;;1.90;;
22064;SDS011;11197;53.110;8.468;2022-12-29T15:28:13;12.80;;;2.25;;
22064;SDS011;11197;53.110;8.468;2022-12-29T15:30:50;13.15;;;2.08;;
22064;SDS011;11197;53.110;8.468;2022-12-29T15:33:19;9.52;;;2.08;;
22064;SDS011;11197;53.110;8.468;2022-12-29T15:35:53;11.55;;;1.80;;
22064;SDS011;11197;53.110;8.468;2022-12-29T15:38:23;12.25;;;1.90;;
22064;SDS011;11197;53.110;8.468;2022-12-29T15:40:56;8.13;;;1.90;;
22064;SDS011;11197;53.110;8.468;2022-12-29T15:43:31;9.05;;;1.83;;
22064;SDS011;11197;53.110;8.468;2022-12-29T15:46:16;8.15;;;1.88;;
22064;SDS011;11197;53.110;8.468;2022-12-29T15:48:45;12.73;;;1.88;;
22064;SDS011;11197;53.110;8.468;2022-12-29T15:51:50;11.32;;;2.30;;
22064;SDS011;11197;53.110;8.468;2022-12-29T15:54:16;12.77;;;2.55;;
22064;SDS011;11197;53.110;8.468;2022-12-29T15:56:45;10.30;;;2.20;;
22064;SDS011;11197;53.110;8.468;2022-12-29T15:59:23;9.73;;;2.60;;
22064;SDS011;11197;53.110;8.468;2022-12-29T16:01:56;14.80;;;6.20;;
22064;SDS011;11197;53.110;8.468;2022-12-29T16:04:25;19.88;;;10.10;;
22064;SDS011;11197;53.110;8.468;2022-12-29T16:06:58;10.10;;;3.25;;
22064;SDS011;11197;53.110;8.468;2022-12-29T16:09:41;9.15;;;2.53;;
22064;SDS011;11197;53.110;8.468;2022-12-29T16:12:22;9.75;;;3.15;;
22064;SDS011;11197;53.110;8.468;2022-12-29T16:14:55;10.10;;;3.10;;
22064;SDS011;11197;53.110;8.468;2022-12-29T16:17:36;11.93;;;2.45;;
22064;SDS011;11197;53.110;8.468;2022-12-29T16:20:25;10.80;;;2.60;;
22064;SDS011;11197;53.110;8.468;2022-12-29T16:23:10;9.88;;;2.70;;
22064;SDS011;11197;53.110;8.468;2022-12-29T16:25:56;10.02;;;2.22;;
22064;SDS011;11197;53.110;8.468;2022-12-29T16:28:36;9.15;;;2.70;;
22064;SDS011;11197;53.110;8.468;2022-12-29T16:31:17;10.15;;;2.75;;
22064;SDS011;11197;53.110;8.468;2022-12-29T16:33:54;10.13;;;2.60;;
22064;SDS011;11197;53.110;8.468;2022-12-29T16:36:31;10.20;;;2.70;;
22064;SDS011;11197;53.110;8.468;2022-12-29T16:41:54;11.05;;;2.55;;
22064;SDS011;11197;53.110;8.468;2022-12-29T16:44:24;14.63;;;2.83;;
22064;SDS011;11197;53.110;8.468;2022-12-29T16:49:29;13.48;;;2.90;;
22064;SDS011;11197;53.110;8.468;2022-12-29T16:52:01;10.13;;;3.10;;
22064;SDS011;11197;53.110;8.468;2022-12-29T16:54:38;9.38;;;3.05;;
22064;SDS011;11197;53.110;8.468;2022-12-29T16:57:08;9.30;;;2.90;;
22064;SDS011;11197;53.110;8.468;2022-12-29T17:02:11;14.30;;;3.83;;
22064;SDS011;11197;53.110;8.468;2022-12-29T17:04:40;10.57;;;3.15;;
22064;SDS011;11197;53.110;8.468;2022-12-29T17:07:15;12.05;;;3.63;;
22064;SDS011;11197;53.110;8.468;2022-12-29T17:09:43;15.02;;;3.88;;
22064;SDS011;11197;53.110;8.468;2022-12-29T17:12:21;13.45;;;4.03;;
22064;SDS011;11197;53.110;8.468;2022-12-29T17:17:35;13.90;;;4.10;;
22064;SDS011;11197;53.110;8.468;2022-12-29T17:20:26;11.30;;;4.35;;
22064;SDS011;11197;53.110;8.468;2022-12-29T17:22:55;16.38;;;4.78;;
22064;SDS011;11197;53.110;8.468;2022-12-29T17:25:26;16.20;;;4.32;;
22064;SDS011;11197;53.110;8.468;2022-12-29T17:30:27;14.48;;;5.28;;
22064;SDS011;11197;53.110;8.468;2022-12-29T17:33:05;14.25;;;5.07;;
22064;SDS011;11197;53.110;8.468;2022-12-29T17:35:35;12.77;;;4.60;;
22064;SDS011;11197;53.110;8.468;2022-12-29T17:38:02;14.07;;;4.47;;
22064;SDS011;11197;53.110;8.468;2022-12-29T17:40:31;12.27;;;4.22;;
22064;SDS011;11197;53.110;8.468;2022-12-29T17:42:58;11.68;;;4.55;;
22064;SDS011;11197;53.110;8.468;2022-12-29T17:45:31;15.57;;;4.47;;
22064;SDS011;11197;53.110;8.468;2022-12-29T17:47:58;12.50;;;4.28;;
22064;SDS011;11197;53.110;8.468;2022-12-29T17:50:35;13.88;;;4.43;;